createdAt,value
2018-09-29T00:00:41.838Z,95272.27
2018-09-29T00:03:10.886Z,95268.33
2018-09-29T00:05:40.320Z,95269.78
2018-09-29T00:08:09.248Z,95266.32
2018-09-29T00:10:38.162Z,95270.70
2018-09-29T00:13:07.117Z,95260.73
2018-09-29T00:15:36.026Z,95267.76
2018-09-29T00:18:04.972Z,95264.33
2018-09-29T00:20:33.926Z,95263.64
2018-09-29T00:23:02.834Z,95262.31
2018-09-29T00:25:31.751Z,95267.54
2018-09-29T00:28:00.731Z,95267.23
2018-09-29T00:30:29.635Z,95271.98
2018-09-29T00:32:58.969Z,95262.29
2018-09-29T00:35:27.896Z,95260.66
2018-09-29T00:37:57.682Z,95256.23
2018-09-29T00:40:26.609Z,95247.22
2018-09-29T00:42:55.496Z,95238.70
2018-09-29T00:45:24.420Z,95238.02
2018-09-29T00:47:53.338Z,95226.39
2018-09-29T00:50:22.310Z,95223.77
2018-09-29T00:52:51.197Z,95231.91
2018-09-29T00:55:20.107Z,95223.88
2018-09-29T00:57:49.045Z,95222.41
2018-09-29T01:00:17.948Z,95226.59
2018-09-29T01:02:46.926Z,95226.77
2018-09-29T01:05:15.832Z,95225.95
2018-09-29T01:07:44.737Z,95223.34
2018-09-29T01:10:13.639Z,95227.06
2018-09-29T01:12:42.599Z,95233.00
2018-09-29T01:15:11.528Z,95231.39
2018-09-29T01:17:40.416Z,95234.47
2018-09-29T01:20:09.383Z,95237.90
2018-09-29T01:22:38.314Z,95233.95
2018-09-29T01:25:07.391Z,95228.40
2018-09-29T01:27:36.320Z,95229.70
2018-09-29T01:30:05.324Z,95233.48
2018-09-29T01:32:34.208Z,95221.23
2018-09-29T01:35:03.264Z,95218.02
2018-09-29T01:37:32.192Z,95221.09
2018-09-29T01:40:01.123Z,95217.03
2018-09-29T01:42:30.047Z,95212.30
2018-09-29T01:44:58.943Z,95215.37
2018-09-29T01:47:27.870Z,95210.64
2018-09-29T01:49:56.775Z,95210.97
2018-09-29T01:52:25.706Z,95208.52
2018-09-29T01:54:55.591Z,95208.36
2018-09-29T01:57:24.574Z,95214.07
2018-09-29T01:59:53.559Z,95222.73
2018-09-29T02:02:23.160Z,95220.63
2018-09-29T02:04:53.400Z,95211.95
2018-09-29T02:07:22.337Z,95218.52
2018-09-29T02:09:51.682Z,95215.41
2018-09-29T02:12:20.724Z,95214.27
2018-09-29T02:14:49.771Z,95220.01
2018-09-29T02:17:18.696Z,95222.92
2018-09-29T02:19:47.619Z,95221.45
2018-09-29T02:22:16.534Z,95218.86
2018-09-29T02:24:45.508Z,95226.59
2018-09-29T02:27:14.411Z,95227.23
2018-09-29T02:29:43.295Z,95228.73
2018-09-29T02:32:12.250Z,95227.23
2018-09-29T02:34:41.139Z,95225.95
2018-09-29T02:37:10.047Z,95230.71
2018-09-29T02:39:38.956Z,95223.37
2018-09-29T02:42:07.903Z,95225.02
2018-09-29T02:44:36.800Z,95221.91
2018-09-29T02:47:05.804Z,95219.78
2018-09-29T02:49:34.735Z,95223.53
2018-09-29T02:52:03.675Z,95215.01
2018-09-29T02:54:32.584Z,95207.35
2018-09-29T02:57:01.506Z,95195.26
2018-09-29T02:59:30.415Z,95212.11
2018-09-29T03:01:59.328Z,95206.86
2018-09-29T03:04:28.227Z,95201.14
2018-09-29T03:06:57.160Z,95198.52
2018-09-29T03:09:26.142Z,95198.35
2018-09-29T03:11:55.063Z,95192.30
2018-09-29T03:14:24.004Z,95191.02
2018-09-29T03:16:53.007Z,95195.94
2018-09-29T03:19:21.966Z,95202.64
2018-09-29T03:21:50.860Z,95199.86
2018-09-29T03:24:19.817Z,95194.47
2018-09-29T03:26:48.785Z,95189.05
2018-09-29T03:29:17.675Z,95183.34
2018-09-29T03:31:46.604Z,95183.16
2018-09-29T03:34:15.524Z,95174.34
2018-09-29T03:36:44.459Z,95175.95
2018-09-29T03:39:13.831Z,95173.99
2018-09-29T03:41:42.719Z,95175.63
2018-09-29T03:44:11.654Z,95180.04
2018-09-29T03:46:40.610Z,95180.84
2018-09-29T03:49:09.511Z,95182.78
2018-09-29T03:51:38.400Z,95186.36
2018-09-29T03:54:07.410Z,95186.70
2018-09-29T03:56:36.370Z,95182.59
2018-09-29T03:59:05.352Z,95181.09
2018-09-29T04:01:34.303Z,95185.17
2018-09-29T04:04:03.209Z,95177.01
2018-09-29T04:06:32.107Z,95180.58
2018-09-29T04:09:01.088Z,95181.41
2018-09-29T04:11:29.983Z,95184.52
2018-09-29T04:13:58.956Z,95183.34
2018-09-29T04:16:27.903Z,95177.46
2018-09-29T04:18:56.794Z,95177.13
2018-09-29T04:21:25.793Z,95176.48
2018-09-29T04:23:54.719Z,95180.02
2018-09-29T04:26:23.619Z,95179.38
2018-09-29T04:28:52.547Z,95177.09
2018-09-29T04:31:21.523Z,95184.14
2018-09-29T04:33:50.468Z,95187.48
2018-09-29T04:36:19.372Z,95188.67
2018-09-29T04:38:48.326Z,95185.56
2018-09-29T04:41:17.243Z,95187.34
2018-09-29T04:43:46.214Z,95190.92
2018-09-29T04:46:15.139Z,95182.89
2018-09-29T04:48:44.090Z,95190.77
2018-09-29T04:51:13.016Z,95190.27
2018-09-29T04:53:41.933Z,95192.06
2018-09-29T04:56:16.783Z,95193.84
2018-09-29T04:58:48.428Z,95184.32
2018-09-29T05:01:19.295Z,95184.67
2018-09-29T05:03:48.814Z,95184.50
2018-09-29T05:06:18.704Z,95189.59
2018-09-29T05:08:47.608Z,95186.34
2018-09-29T05:11:17.193Z,95192.25
2018-09-29T05:13:47.018Z,95189.98
2018-09-29T05:16:17.076Z,95185.40
2018-09-29T05:18:46.208Z,95188.30
2018-09-29T05:21:15.119Z,95190.94
2018-09-29T05:23:44.171Z,95189.16
2018-09-29T05:26:13.083Z,95192.30
2018-09-29T05:28:42.051Z,95200.34
2018-09-29T05:31:10.963Z,95201.63
2018-09-29T05:33:39.888Z,95201.82
2018-09-29T05:36:09.495Z,95204.94
2018-09-29T05:38:38.391Z,95205.91
2018-09-29T05:41:07.379Z,95206.91
2018-09-29T05:43:36.353Z,95201.30
2018-09-29T05:46:05.351Z,95196.19
2018-09-29T05:48:34.287Z,95215.05
2018-09-29T05:51:03.521Z,95205.79
2018-09-29T05:53:32.526Z,95203.72
2018-09-29T05:56:01.647Z,95197.51
2018-09-29T05:58:30.636Z,95197.66
2018-09-29T06:00:59.661Z,95207.97
2018-09-29T06:03:29.388Z,95205.83
2018-09-29T06:05:58.310Z,95198.31
2018-09-29T06:08:28.673Z,95197.83
2018-09-29T06:10:57.618Z,95202.25
2018-09-29T06:13:27.279Z,95203.88
2018-09-29T06:15:56.378Z,95197.98
2018-09-29T06:18:25.982Z,95198.95
2018-09-29T06:20:54.949Z,95205.84
2018-09-29T06:23:25.819Z,95204.84
2018-09-29T06:25:55.356Z,95199.53
2018-09-29T06:28:24.227Z,95197.18
2018-09-29T06:30:54.971Z,95198.63
2018-09-29T06:33:23.895Z,95205.13
2018-09-29T06:35:52.845Z,95205.54
2018-09-29T06:38:21.827Z,95204.98
2018-09-29T06:40:50.807Z,95210.66
2018-09-29T06:43:19.711Z,95216.48
2018-09-29T06:45:49.623Z,95217.73
2018-09-29T06:48:18.533Z,95210.32
2018-09-29T06:50:47.433Z,95218.48
2018-09-29T06:53:16.354Z,95214.56
2018-09-29T06:55:45.311Z,95219.14
2018-09-29T06:58:14.283Z,95222.48
2018-09-29T07:00:43.186Z,95225.70
2018-09-29T07:03:12.103Z,95225.14
2018-09-29T07:05:41.005Z,95236.20
2018-09-29T07:08:09.928Z,95234.28
2018-09-29T07:10:39.596Z,95232.67
2018-09-29T07:13:08.516Z,95232.26
2018-09-29T07:15:37.452Z,95234.25
2018-09-29T07:18:06.435Z,95231.53
2018-09-29T07:20:35.543Z,95237.89
2018-09-29T07:23:04.447Z,95230.58
2018-09-29T07:25:33.367Z,95238.44
2018-09-29T07:28:02.285Z,95231.70
2018-09-29T07:30:32.215Z,95230.02
2018-09-29T07:33:01.723Z,95223.98
2018-09-29T07:35:31.306Z,95231.11
2018-09-29T07:38:00.267Z,95235.09
2018-09-29T07:40:29.231Z,95231.08
2018-09-29T07:42:59.946Z,95233.26
2018-09-29T07:45:29.620Z,95240.47
2018-09-29T07:47:58.547Z,95238.84
2018-09-29T07:50:27.455Z,95235.50
2018-09-29T07:52:56.948Z,95232.21
2018-09-29T07:55:25.876Z,95243.04
2018-09-29T07:57:54.787Z,95239.28
2018-09-29T08:00:23.715Z,95240.47
2018-09-29T08:02:54.400Z,95230.27
2018-09-29T08:05:23.382Z,95226.82
2018-09-29T08:07:52.277Z,95224.00
2018-09-29T08:10:21.179Z,95225.47
2018-09-29T08:12:50.100Z,95224.84
2018-09-29T08:15:19.071Z,95237.96
2018-09-29T08:17:48.015Z,95229.52
2018-09-29T08:20:16.958Z,95229.79
2018-09-29T08:22:45.903Z,95230.84
2018-09-29T08:25:14.812Z,95235.45
2018-09-29T08:27:43.775Z,95229.64
2018-09-29T08:30:12.672Z,95224.11
2018-09-29T08:32:41.695Z,95230.64
2018-09-29T08:35:10.659Z,95221.81
2018-09-29T08:37:39.596Z,95226.30
2018-09-29T08:40:08.529Z,95220.36
2018-09-29T08:42:37.440Z,95226.52
2018-09-29T08:45:06.535Z,95219.19
2018-09-29T08:47:35.427Z,95208.37
2018-09-29T08:50:04.479Z,95204.13
2018-09-29T08:52:33.392Z,95203.95
2018-09-29T08:55:02.353Z,95202.89
2018-09-29T08:57:31.297Z,95201.83
2018-09-29T09:00:00.201Z,95200.45
2018-09-29T09:02:29.137Z,95201.47
2018-09-29T09:04:58.076Z,95194.73
2018-09-29T09:07:27.060Z,95192.41
2018-09-29T09:09:56.012Z,95191.09
2018-09-29T09:12:24.899Z,95191.80
2018-09-29T09:14:53.820Z,95194.43
2018-09-29T09:17:22.721Z,95193.88
2018-09-29T09:19:51.651Z,95189.98
2018-09-29T09:22:20.625Z,95192.36
2018-09-29T09:24:49.591Z,95190.92
2018-09-29T09:27:18.482Z,95191.23
2018-09-29T09:29:47.497Z,95191.49
2018-09-29T09:32:16.412Z,95191.99
2018-09-29T09:34:45.342Z,95189.62
2018-09-29T09:37:14.259Z,95196.20
2018-09-29T09:39:43.705Z,95187.14
2018-09-29T09:42:12.623Z,95184.69
2018-09-29T09:44:41.548Z,95181.36
2018-09-29T09:47:10.459Z,95184.63
2018-09-29T09:49:39.367Z,95184.91
2018-09-29T09:52:08.339Z,95184.73
2018-09-29T09:54:37.893Z,95174.05
2018-09-29T09:57:07.264Z,95179.59
2018-09-29T09:59:36.193Z,95177.50
2018-09-29T10:02:10.311Z,95183.20
2018-09-29T10:04:39.262Z,95179.73
2018-09-29T10:07:08.637Z,95180.19
2018-09-29T10:09:38.147Z,95176.23
2018-09-29T10:12:07.267Z,95167.05
2018-09-29T10:14:36.211Z,95168.59
2018-09-29T10:17:05.114Z,95167.19
2018-09-29T10:19:34.082Z,95161.71
2018-09-29T10:22:03.028Z,95155.55
2018-09-29T10:24:31.924Z,95155.04
2018-09-29T10:27:00.829Z,95154.95
2018-09-29T10:29:29.727Z,95155.08
2018-09-29T10:31:58.644Z,95150.27
2018-09-29T10:34:27.515Z,95146.52
2018-09-29T10:36:56.434Z,95151.20
2018-09-29T10:39:25.358Z,95141.95
2018-09-29T10:41:54.310Z,95143.48
2018-09-29T10:44:23.206Z,95136.19
2018-09-29T10:46:52.126Z,95139.15
2018-09-29T10:49:21.049Z,95139.47
2018-09-29T10:51:49.934Z,95131.13
2018-09-29T10:54:18.830Z,95126.86
2018-09-29T10:56:47.760Z,95118.70
2018-09-29T10:59:16.787Z,95122.89
2018-09-29T11:01:45.672Z,95111.30
2018-09-29T11:04:14.563Z,95110.38
2018-09-29T11:06:43.499Z,95108.22
2018-09-29T11:09:12.651Z,95110.55
2018-09-29T11:11:41.572Z,95103.64
2018-09-29T11:14:10.459Z,95104.88
2018-09-29T11:16:39.422Z,95098.97
2018-09-29T11:19:08.307Z,95103.23
2018-09-29T11:21:37.209Z,95102.62
2018-09-29T11:24:06.359Z,95093.50
2018-09-29T11:26:35.323Z,95097.65
2018-09-29T11:29:04.306Z,95092.16
2018-09-29T11:31:33.247Z,95090.23
2018-09-29T11:34:02.180Z,95090.02
2018-09-29T11:36:31.115Z,95085.33
2018-09-29T11:39:00.148Z,95080.36
2018-09-29T11:41:29.068Z,95074.27
2018-09-29T11:43:57.962Z,95072.61
2018-09-29T11:46:26.871Z,95071.81
2018-09-29T11:48:55.767Z,95081.55
2018-09-29T11:51:24.707Z,95071.88
2018-09-29T11:53:53.636Z,95073.31
2018-09-29T11:56:22.732Z,95060.80
2018-09-29T11:58:51.648Z,95067.63
2018-09-29T12:01:20.650Z,95070.27
2018-09-29T12:03:49.568Z,95058.98
2018-09-29T12:06:18.571Z,95068.73
2018-09-29T12:08:47.584Z,95068.01
2018-09-29T12:11:16.540Z,95064.13
2018-09-29T12:13:46.102Z,95065.34
2018-09-29T12:16:15.047Z,95061.97
2018-09-29T12:18:43.983Z,95061.42
2018-09-29T12:21:12.891Z,95057.43
2018-09-29T12:23:41.880Z,95057.53
2018-09-29T12:26:10.788Z,95059.59
2018-09-29T12:28:39.687Z,95059.75
2018-09-29T12:31:08.696Z,95055.30
2018-09-29T12:33:37.563Z,95058.61
2018-09-29T12:36:06.514Z,95060.22
2018-09-29T12:38:35.476Z,95056.84
2018-09-29T12:41:04.459Z,95058.69
2018-09-29T12:43:33.488Z,95058.09
2018-09-29T12:46:02.556Z,95049.56
2018-09-29T12:48:31.615Z,95049.45
2018-09-29T12:51:00.923Z,95050.08
2018-09-29T12:53:29.902Z,95054.45
2018-09-29T12:55:58.839Z,95051.00
2018-09-29T12:58:27.798Z,95055.08
2018-09-29T13:00:56.737Z,95052.46
2018-09-29T13:03:25.741Z,95046.44
2018-09-29T13:05:54.706Z,95044.52
2018-09-29T13:08:23.750Z,95043.28
2018-09-29T13:10:52.714Z,95043.46
2018-09-29T13:13:21.665Z,95048.79
2018-09-29T13:15:51.764Z,95041.77
2018-09-29T13:18:20.694Z,95038.31
2018-09-29T13:20:49.655Z,95045.73
2018-09-29T13:23:18.655Z,95037.13
2018-09-29T13:25:47.619Z,95033.16
2018-09-29T13:28:16.555Z,95036.39
2018-09-29T13:30:45.654Z,95035.07
2018-09-29T13:33:14.563Z,95044.04
2018-09-29T13:35:43.527Z,95042.31
2018-09-29T13:38:12.460Z,95037.91
2018-09-29T13:40:41.386Z,95042.02
2018-09-29T13:43:10.315Z,95034.48
2018-09-29T13:45:39.291Z,95031.95
2018-09-29T13:48:08.541Z,95038.13
2018-09-29T13:50:37.496Z,95028.34
2018-09-29T13:53:06.832Z,95034.16
2018-09-29T13:55:35.809Z,95039.66
2018-09-29T13:58:04.755Z,95034.08
2018-09-29T14:00:33.688Z,95040.37
2018-09-29T14:03:02.603Z,95033.53
2018-09-29T14:05:31.543Z,95039.23
2018-09-29T14:08:00.452Z,95032.80
2018-09-29T14:10:29.395Z,95029.64
2018-09-29T14:12:58.348Z,95032.36
2018-09-29T14:15:27.345Z,95037.06
2018-09-29T14:17:56.276Z,95043.13
2018-09-29T14:20:25.220Z,95045.81
2018-09-29T14:22:54.141Z,95050.08
2018-09-29T14:25:23.031Z,95045.22
2018-09-29T14:27:52.007Z,95049.70
2018-09-29T14:30:20.985Z,95055.78
2018-09-29T14:32:49.972Z,95052.65
2018-09-29T14:35:18.912Z,95059.75
2018-09-29T14:37:47.894Z,95058.64
2018-09-29T14:40:16.816Z,95057.10
2018-09-29T14:42:45.733Z,95062.69
2018-09-29T14:45:14.743Z,95060.27
2018-09-29T14:47:43.831Z,95068.53
2018-09-29T14:50:12.813Z,95083.09
2018-09-29T14:52:41.776Z,95085.33
2018-09-29T14:55:10.701Z,95085.63
2018-09-29T14:57:39.671Z,95081.06
2018-09-29T15:00:08.728Z,95089.70
2018-09-29T15:02:37.639Z,95085.73
2018-09-29T15:05:06.594Z,95091.46
2018-09-29T15:07:35.520Z,95091.34
2018-09-29T15:10:04.601Z,95100.94
2018-09-29T15:12:33.556Z,95106.34
2018-09-29T15:15:02.600Z,95108.79
2018-09-29T15:17:31.554Z,95112.34
2018-09-29T15:20:00.564Z,95125.36
2018-09-29T15:22:29.576Z,95119.49
2018-09-29T15:24:58.591Z,95120.91
2018-09-29T15:27:27.482Z,95130.48
2018-09-29T15:29:56.481Z,95125.80
2018-09-29T15:32:25.380Z,95132.51
2018-09-29T15:34:54.306Z,95136.79
2018-09-29T15:37:24.247Z,95143.20
2018-09-29T15:39:53.179Z,95142.48
2018-09-29T15:42:22.220Z,95146.77
2018-09-29T15:44:51.914Z,95149.42
2018-09-29T15:47:20.841Z,95151.23
2018-09-29T15:49:49.731Z,95157.52
2018-09-29T15:52:18.683Z,95153.42
2018-09-29T15:54:47.716Z,95160.33
2018-09-29T15:57:16.823Z,95154.66
2018-09-29T15:59:45.785Z,95166.17
2018-09-29T16:02:14.882Z,95170.22
2018-09-29T16:04:48.235Z,95163.16
2018-09-29T16:07:17.296Z,95168.25
2018-09-29T16:09:46.431Z,95172.52
2018-09-29T16:12:17.803Z,95181.92
2018-09-29T16:14:46.913Z,95188.50
2018-09-29T16:17:16.002Z,95173.84
2018-09-29T16:19:46.802Z,95179.05
2018-09-29T16:22:15.837Z,95178.38
2018-09-29T16:24:47.070Z,95187.16
2018-09-29T16:33:24.051Z,95196.62
2018-09-29T16:36:03.617Z,95196.33
2018-09-29T16:38:35.271Z,95200.97
2018-09-29T16:41:05.641Z,95212.14
2018-09-29T16:43:36.515Z,95205.78
2018-09-29T16:46:11.694Z,95205.08
2018-09-29T16:48:41.464Z,95212.13
2018-09-29T16:51:10.471Z,95213.95
2018-09-29T16:53:39.504Z,95222.09
2018-09-29T16:56:13.386Z,95226.25
2018-09-29T16:58:42.548Z,95221.91
2018-09-29T17:01:15.492Z,95221.16
2018-09-29T17:03:47.218Z,95233.27
2018-09-29T17:09:00.278Z,95243.54
2018-09-29T17:11:29.506Z,95256.22
2018-09-29T17:13:58.479Z,95260.53
2018-09-29T17:16:27.465Z,95264.00
2018-09-29T17:18:56.440Z,95264.31
2018-09-29T17:21:25.534Z,95265.36
2018-09-29T17:23:54.338Z,95268.91
2018-09-29T17:26:23.301Z,95272.53
2018-09-29T17:28:53.897Z,95276.25
2018-09-29T17:31:22.912Z,95271.80
2018-09-29T17:33:55.588Z,95275.98
2018-09-29T17:36:36.092Z,95276.91
2018-09-29T17:39:10.074Z,95286.27
2018-09-29T17:41:39.540Z,95282.98
2018-09-29T17:44:17.208Z,95286.03
2018-09-29T17:46:46.235Z,95286.73
2018-09-29T17:49:15.396Z,95294.59
2018-09-29T17:51:44.426Z,95293.59
2018-09-29T17:54:14.903Z,95291.11
2018-09-29T17:56:43.975Z,95308.58
2018-09-29T17:59:15.737Z,95318.47
2018-09-29T18:01:45.875Z,95310.64
2018-09-29T18:04:15.902Z,95318.69
2018-09-29T18:24:24.167Z,95365.63
2018-09-29T18:26:53.685Z,95369.58
2018-09-29T18:29:22.677Z,95373.91
2018-09-29T18:31:52.539Z,95374.19
2018-09-29T18:34:22.346Z,95378.89
2018-09-29T18:36:51.305Z,95382.41
2018-09-29T18:39:20.440Z,95388.59
2018-09-29T18:41:49.578Z,95398.61
2018-09-29T18:44:18.531Z,95402.05
2018-09-29T18:46:47.509Z,95402.23
2018-09-29T18:49:16.483Z,95405.98
2018-09-29T18:51:46.116Z,95405.58
2018-09-29T18:54:15.031Z,95405.09
2018-09-29T18:56:44.033Z,95404.89
2018-09-29T18:59:13.008Z,95408.70
2018-09-29T19:01:42.102Z,95412.48
2018-09-29T19:04:11.022Z,95425.13
2018-09-29T19:06:40.028Z,95420.31
2018-09-29T19:09:10.936Z,95420.37
2018-09-29T19:11:39.875Z,95425.75
2018-09-29T19:14:08.872Z,95427.84
2018-09-29T19:16:44.895Z,95427.73
2018-09-29T19:19:13.836Z,95434.67
2018-09-29T19:21:42.752Z,95439.93
2018-09-29T19:24:11.779Z,95433.60
2018-09-29T19:26:40.767Z,95435.87
2018-09-29T19:29:09.695Z,95440.55
2018-09-29T19:31:38.653Z,95444.38
2018-09-29T19:34:07.608Z,95439.46
2018-09-29T19:36:36.837Z,95439.34
2018-09-29T19:39:07.296Z,95444.84
2018-09-29T19:41:36.357Z,95446.45
2018-09-29T19:44:05.362Z,95445.40
2018-09-29T19:46:34.313Z,95453.86
2018-09-29T19:49:03.248Z,95450.70
2018-09-29T19:51:32.283Z,95454.44
2018-09-29T19:54:04.878Z,95454.73
2018-09-29T19:56:34.822Z,95456.55
2018-09-29T19:59:03.808Z,95459.47
2018-09-29T20:01:32.784Z,95463.92
2018-09-29T20:04:01.821Z,95467.68
2018-09-29T20:06:30.799Z,95468.83
2018-09-29T20:08:59.768Z,95465.84
2018-09-29T20:11:28.744Z,95469.03
2018-09-29T20:13:57.731Z,95464.52
2018-09-29T20:16:26.778Z,95466.41
2018-09-29T20:18:55.735Z,95476.94
2018-09-29T20:21:24.755Z,95480.74
2018-09-29T20:23:53.717Z,95476.92
2018-09-29T20:26:22.667Z,95473.42
2018-09-29T20:28:51.587Z,95482.19
2018-09-29T20:31:20.535Z,95470.48
2018-09-29T20:33:49.488Z,95473.98
2018-09-29T20:36:18.407Z,95468.54
2018-09-29T20:38:47.351Z,95476.06
2018-09-29T20:41:16.302Z,95478.05
2018-09-29T20:43:45.307Z,95478.68
2018-09-29T20:46:14.253Z,95479.00
2018-09-29T20:48:43.196Z,95477.37
2018-09-29T20:51:12.171Z,95481.45
2018-09-29T20:53:41.111Z,95483.92
2018-09-29T20:56:10.103Z,95485.39
2018-09-29T20:58:39.028Z,95492.95
2018-09-29T21:01:08.008Z,95481.17
2018-09-29T21:03:36.975Z,95486.82
2018-09-29T21:06:05.985Z,95484.34
2018-09-29T21:08:34.956Z,95481.56
2018-09-29T21:11:03.917Z,95484.51
2018-09-29T21:13:33.580Z,95485.82
2018-09-29T21:16:02.495Z,95485.49
2018-09-29T21:18:31.710Z,95482.01
2018-09-29T21:21:00.995Z,95476.57
2018-09-29T21:23:29.964Z,95481.68
2018-09-29T21:25:58.903Z,95482.52
2018-09-29T21:28:27.914Z,95478.75
2018-09-29T21:30:56.864Z,95482.88
2018-09-29T21:33:25.804Z,95479.58
2018-09-29T21:35:54.758Z,95487.30
2018-09-29T21:38:23.712Z,95487.48
2018-09-29T21:40:52.671Z,95485.08
2018-09-29T21:43:21.614Z,95487.24
2018-09-29T21:45:50.592Z,95480.05
2018-09-29T21:48:19.494Z,95491.04
2018-09-29T21:50:48.782Z,95483.34
2018-09-29T21:53:17.711Z,95490.72
2018-09-29T21:55:46.619Z,95486.60
2018-09-29T21:58:15.668Z,95485.47
2018-09-29T22:00:45.543Z,95480.04
2018-09-29T22:03:15.938Z,95483.69
2018-09-29T22:05:45.666Z,95485.00
2018-09-29T22:08:15.003Z,95474.81
2018-09-29T22:10:44.487Z,95479.75
2018-09-29T22:13:13.442Z,95481.55
2018-09-29T22:15:42.455Z,95480.06
2018-09-29T22:18:11.401Z,95482.87
2018-09-29T22:20:40.363Z,95480.23
2018-09-29T22:23:09.355Z,95473.03
2018-09-29T22:25:39.526Z,95473.70
2018-09-29T22:28:08.439Z,95486.49
2018-09-29T22:30:37.388Z,95484.83
2018-09-29T22:33:06.598Z,95488.77
2018-09-29T22:35:35.550Z,95490.23
2018-09-29T22:38:04.456Z,95494.00
2018-09-29T22:40:33.386Z,95492.22
2018-09-29T22:43:02.331Z,95494.18
2018-09-29T22:45:31.317Z,95493.19
2018-09-29T22:48:00.236Z,95496.66
2018-09-29T22:50:29.147Z,95491.88
2018-09-29T22:52:58.204Z,95497.45
2018-09-29T22:55:27.107Z,95500.42
2018-09-29T22:57:56.120Z,95498.44
2018-09-29T23:00:25.084Z,95501.41
2018-09-29T23:02:54.039Z,95505.00
2018-09-29T23:05:23.065Z,95499.75
2018-09-29T23:07:52.079Z,95502.38
2018-09-29T23:10:21.073Z,95508.44
2018-09-29T23:12:50.043Z,95504.03
2018-09-29T23:15:19.684Z,95507.62
2018-09-29T23:17:49.315Z,95513.55
2018-09-29T23:20:18.376Z,95507.31
2018-09-29T23:22:49.624Z,95504.36
2018-09-29T23:25:19.334Z,95509.76
2018-09-29T23:27:48.331Z,95515.02
2018-09-29T23:30:17.972Z,95513.84
2018-09-29T23:32:46.909Z,95510.41
2018-09-29T23:35:15.840Z,95515.83
2018-09-29T23:37:44.801Z,95513.20
2018-09-29T23:40:13.802Z,95512.86
2018-09-29T23:42:42.855Z,95508.75
2018-09-29T23:45:11.809Z,95512.22
2018-09-29T23:47:40.787Z,95507.44
2018-09-29T23:50:09.772Z,95512.86
2018-09-29T23:52:38.735Z,95507.12
2018-09-29T23:55:07.793Z,95507.30
2018-09-29T23:57:36.825Z,95502.71
